PILOTS ONLINE: 377    ATC ONLINE: 56

KAVX - Catalina Airport

Location

IATA CIB
City Avalon
Country  United States
Latitude 33° 24' 17" N
Longitude 118° 24' 57" W
Elevation 1602 ft
Type Small Airport

Runways

04/22 3000 ft / 60 ft

Weather

METAR
2014/07/29 01:51
KAVX 290151Z AUTO 26013KT 10SM CLR 22/10 A3006 RMK AO2 SLP156 T02170100
TAF
No TAF available

Outbound flights

Inbound flights